createdAt,value
2023-11-12T00:00:20.586Z,4.50
2023-11-12T00:03:08.530Z,4.60
2023-11-12T00:05:36.062Z,4.70
2023-11-12T00:08:04.087Z,4.70
2023-11-12T00:10:32.454Z,4.70
2023-11-12T00:13:00.587Z,4.80
2023-11-12T00:15:28.439Z,4.80
2023-11-12T00:17:56.471Z,4.80
2023-11-12T00:20:26.853Z,4.90
2023-11-12T00:22:56.089Z,4.90
2023-11-12T00:25:25.841Z,4.90
2023-11-12T00:27:55.484Z,4.80
2023-11-12T00:30:24.442Z,4.90
2023-11-12T00:32:53.847Z,4.90
2023-11-12T00:35:21.397Z,5.00
2023-11-12T00:37:49.168Z,5.00
2023-11-12T00:40:17.665Z,4.90
2023-11-12T00:42:45.380Z,4.90
2023-11-12T00:45:14.394Z,4.90
2023-11-12T00:47:43.665Z,4.90
2023-11-12T00:50:13.227Z,4.80
2023-11-12T00:52:44.093Z,4.90
2023-11-12T00:55:12.765Z,4.90
2023-11-12T00:57:40.436Z,5.00
2023-11-12T01:00:08.777Z,5.00
2023-11-12T01:02:37.081Z,4.90
2023-11-12T01:05:06.271Z,4.80
2023-11-12T01:07:34.194Z,4.80
2023-11-12T01:10:02.081Z,4.70
2023-11-12T01:12:30.839Z,4.70
2023-11-12T01:14:58.541Z,4.70
2023-11-12T01:17:26.455Z,4.70
2023-11-12T01:19:54.017Z,4.70
2023-11-12T01:22:23.255Z,4.70
2023-11-12T01:24:51.039Z,4.70
2023-11-12T01:27:18.727Z,4.70
2023-11-12T01:29:46.782Z,4.80
2023-11-12T01:32:15.283Z,4.80
2023-11-12T01:34:42.638Z,4.80
2023-11-12T01:37:10.235Z,4.70
2023-11-12T01:39:38.450Z,4.70
2023-11-12T01:42:12.965Z,4.70
2023-11-12T01:44:40.969Z,4.60
2023-11-12T01:47:13.473Z,4.60
2023-11-12T01:49:41.850Z,4.60
2023-11-12T01:52:12.690Z,4.50
2023-11-12T01:54:42.567Z,4.50
2023-11-12T01:57:12.956Z,4.50
2023-11-12T01:59:40.543Z,4.50
2023-11-12T02:02:09.199Z,4.60
2023-11-12T02:04:37.274Z,4.70
2023-11-12T02:07:06.314Z,4.70
2023-11-12T02:09:34.393Z,4.70
2023-11-12T02:12:02.344Z,4.70
2023-11-12T02:14:31.743Z,4.70
2023-11-12T02:17:00.689Z,4.70
2023-11-12T02:19:30.476Z,4.40
2023-11-12T02:21:59.431Z,4.40
2023-11-12T02:24:27.026Z,4.50
2023-11-12T02:26:55.340Z,4.50
2023-11-12T02:29:23.551Z,4.60
2023-11-12T02:31:51.670Z,4.60
2023-11-12T02:34:19.538Z,4.70
2023-11-12T02:36:54.393Z,4.70
2023-11-12T02:39:22.274Z,4.70
2023-11-12T02:41:50.068Z,4.60
2023-11-12T02:44:17.748Z,4.60
2023-11-12T02:46:45.648Z,4.60
2023-11-12T02:49:54.785Z,4.60
2023-11-12T02:52:23.586Z,4.60
2023-11-12T02:54:51.119Z,4.60
2023-11-12T02:57:22.492Z,4.60
2023-11-12T02:59:50.870Z,4.70
2023-11-12T03:02:18.613Z,4.70
2023-11-12T03:04:47.931Z,4.80
2023-11-12T03:07:19.644Z,4.80
2023-11-12T03:09:48.551Z,4.60
2023-11-12T03:12:17.402Z,4.50
2023-11-12T03:14:45.010Z,4.50
2023-11-12T03:17:13.885Z,4.50
2023-11-12T03:19:41.652Z,4.50
2023-11-12T03:22:11.683Z,4.60
2023-11-12T03:24:39.718Z,4.60
2023-11-12T03:27:09.499Z,4.60
2023-11-12T03:29:37.004Z,4.50
2023-11-12T03:32:06.183Z,4.50
2023-11-12T03:34:33.643Z,4.50
2023-11-12T03:37:02.041Z,4.60
2023-11-12T03:39:29.541Z,4.60
2023-11-12T03:41:57.947Z,4.70
2023-11-12T03:44:25.450Z,4.70
2023-11-12T03:46:53.265Z,4.70
2023-11-12T03:49:21.138Z,4.80
2023-11-12T03:51:49.270Z,4.80
2023-11-12T03:54:17.822Z,4.80
2023-11-12T03:56:45.614Z,4.90
2023-11-12T03:59:13.156Z,4.90
2023-11-12T04:01:40.940Z,4.90
2023-11-12T04:04:08.725Z,4.90
2023-11-12T04:06:36.554Z,5.00
2023-11-12T04:09:04.748Z,5.10
2023-11-12T04:11:33.432Z,5.10
2023-11-12T04:14:00.909Z,5.00
2023-11-12T04:16:28.593Z,5.00
2023-11-12T04:18:57.123Z,4.90
2023-11-12T04:21:24.903Z,4.90
2023-11-12T04:23:52.354Z,4.90
2023-11-12T04:26:20.132Z,5.00
2023-11-12T04:28:48.870Z,4.90
2023-11-12T04:31:16.990Z,4.80
2023-11-12T04:33:44.658Z,4.80
2023-11-12T04:36:16.119Z,4.90
2023-11-12T04:38:43.838Z,4.90
2023-11-12T04:41:13.221Z,4.80
2023-11-12T04:43:41.523Z,5.00
2023-11-12T04:46:12.523Z,5.00
2023-11-12T04:48:40.867Z,5.00
2023-11-12T04:51:09.401Z,5.00
2023-11-12T04:53:38.874Z,5.00
2023-11-12T04:56:10.985Z,5.10
2023-11-12T04:58:39.684Z,5.10
2023-11-12T05:01:10.486Z,5.20
2023-11-12T05:03:38.111Z,5.20
2023-11-12T05:06:11.528Z,5.20
2023-11-12T05:08:39.970Z,5.30
2023-11-12T05:11:09.830Z,5.30
2023-11-12T05:13:38.337Z,5.30
2023-11-12T05:16:09.834Z,5.30
2023-11-12T05:18:37.267Z,5.30
2023-11-12T05:21:07.993Z,5.40
2023-11-12T05:23:35.425Z,5.40
2023-11-12T05:26:03.228Z,5.50
2023-11-12T05:28:31.209Z,5.40
2023-11-12T05:30:59.038Z,5.40
2023-11-12T05:33:27.538Z,5.40
2023-11-12T05:35:55.188Z,5.40
2023-11-12T05:38:22.767Z,5.50
2023-11-12T05:40:50.636Z,5.40
2023-11-12T05:43:18.069Z,5.40
2023-11-12T05:45:47.928Z,5.50
2023-11-12T05:48:16.367Z,5.50
2023-11-12T05:50:44.882Z,5.50
2023-11-12T05:53:12.622Z,5.60
2023-11-12T05:55:40.401Z,5.50
2023-11-12T05:58:08.839Z,5.60
2023-11-12T06:00:36.492Z,5.50
2023-11-12T06:03:04.093Z,5.40
2023-11-12T06:05:31.895Z,5.50
2023-11-12T06:07:59.369Z,5.50
2023-11-12T06:10:30.403Z,5.50
2023-11-12T06:12:58.445Z,5.50
2023-11-12T06:15:28.413Z,5.50
2023-11-12T06:17:57.658Z,5.50
2023-11-12T06:20:27.606Z,5.50
2023-11-12T06:22:57.957Z,5.50
2023-11-12T06:25:26.460Z,5.50
2023-11-12T06:27:54.429Z,5.60
2023-11-12T06:30:22.519Z,5.70
2023-11-12T06:32:49.982Z,5.70
2023-11-12T06:35:17.745Z,5.80
2023-11-12T06:37:45.620Z,5.80
2023-11-12T06:40:14.626Z,5.90
2023-11-12T06:42:43.861Z,6.00
2023-11-12T06:45:14.264Z,6.00
2023-11-12T06:47:41.946Z,5.90
2023-11-12T06:50:13.247Z,5.90
2023-11-12T06:52:40.723Z,5.90
2023-11-12T06:55:09.283Z,6.00
2023-11-12T06:57:36.841Z,6.10
2023-11-12T07:00:05.947Z,6.20
2023-11-12T07:02:35.155Z,6.10
2023-11-12T07:05:06.163Z,6.10
2023-11-12T07:07:34.337Z,6.00
2023-11-12T07:10:02.214Z,5.90
2023-11-12T07:12:31.800Z,5.90
2023-11-12T07:15:00.723Z,5.90
2023-11-12T07:17:28.398Z,5.90
2023-11-12T07:19:57.342Z,6.00
2023-11-12T07:22:25.540Z,6.00
2023-11-12T07:24:56.918Z,6.10
2023-11-12T07:27:25.191Z,6.20
2023-11-12T07:29:53.179Z,6.00
2023-11-12T07:32:22.186Z,6.00
2023-11-12T07:34:50.292Z,6.10
2023-11-12T07:37:17.853Z,6.10
2023-11-12T07:39:45.687Z,6.20
2023-11-12T07:42:13.266Z,6.10
2023-11-12T07:44:43.217Z,6.10
2023-11-12T07:47:10.784Z,6.10
2023-11-12T07:49:39.330Z,6.20
2023-11-12T07:52:07.148Z,6.20
2023-11-12T07:54:35.839Z,6.20
2023-11-12T07:57:03.732Z,6.30
2023-11-12T07:59:31.788Z,6.40
2023-11-12T08:01:59.316Z,6.40
2023-11-12T08:04:27.036Z,6.40
2023-11-12T08:06:54.532Z,6.40
2023-11-12T08:09:22.771Z,6.40
2023-11-12T08:11:50.344Z,6.50
2023-11-12T08:14:18.334Z,6.40
2023-11-12T08:16:45.829Z,6.30
2023-11-12T08:19:15.164Z,6.20
2023-11-12T08:21:43.022Z,6.20
2023-11-12T08:24:11.026Z,6.30
2023-11-12T08:26:41.110Z,6.30
2023-11-12T08:29:09.027Z,6.30
2023-11-12T08:31:37.530Z,6.40
2023-11-12T08:34:05.942Z,6.40
2023-11-12T08:36:33.520Z,6.40
2023-11-12T08:39:05.315Z,6.40
2023-11-12T08:41:33.437Z,6.40
2023-11-12T08:44:01.483Z,6.50
2023-11-12T08:46:29.625Z,6.50
2023-11-12T08:48:57.501Z,6.60
2023-11-12T08:51:25.946Z,6.70
2023-11-12T08:53:56.878Z,6.70
2023-11-12T08:56:24.737Z,6.70
2023-11-12T08:58:52.601Z,6.80
2023-11-12T09:01:20.034Z,6.70
2023-11-12T09:03:47.804Z,6.60
2023-11-12T09:06:15.569Z,6.50
2023-11-12T09:08:43.344Z,6.60
2023-11-12T09:11:14.931Z,6.50
2023-11-12T09:13:44.033Z,6.40
2023-11-12T09:16:12.322Z,6.30
2023-11-12T09:18:40.926Z,6.30
2023-11-12T09:21:08.484Z,6.40
2023-11-12T09:23:36.359Z,6.30
2023-11-12T09:26:04.179Z,6.30
2023-11-12T09:28:33.017Z,6.40
2023-11-12T09:31:01.045Z,6.40
2023-11-12T09:33:29.076Z,6.40
2023-11-12T09:35:56.717Z,6.40
2023-11-12T09:38:24.489Z,6.50
2023-11-12T09:40:54.832Z,6.50
2023-11-12T09:43:26.536Z,6.50
2023-11-12T09:45:57.602Z,6.60
2023-11-12T09:48:40.507Z,6.70
2023-11-12T09:51:09.930Z,6.80
2023-11-12T09:53:38.947Z,6.70
2023-11-12T09:56:10.732Z,6.70
2023-11-12T09:58:44.026Z,6.80
2023-11-12T10:01:15.187Z,6.90
2023-11-12T10:03:49.110Z,6.80
2023-11-12T10:06:18.234Z,6.90
2023-11-12T10:08:46.573Z,6.80
2023-11-12T10:11:17.469Z,6.80
2023-11-12T10:13:46.420Z,6.80
2023-11-12T10:16:32.869Z,6.80
2023-11-12T10:19:15.981Z,6.80
2023-11-12T10:22:37.163Z,6.90
2023-11-12T10:25:05.290Z,6.80
2023-11-12T10:27:33.156Z,6.90
2023-11-12T10:30:19.751Z,6.80
2023-11-12T10:32:48.661Z,6.90
2023-11-12T10:35:27.280Z,6.90
2023-11-12T10:38:03.596Z,6.90
2023-11-12T10:40:31.509Z,6.90
2023-11-12T10:43:10.792Z,7.10
2023-11-12T10:45:42.543Z,7.10
2023-11-12T10:48:12.828Z,7.30
2023-11-12T10:50:43.691Z,7.40
2023-11-12T10:53:11.712Z,7.30
2023-11-12T10:55:41.169Z,7.60
2023-11-12T10:58:10.960Z,7.80
2023-11-12T11:00:41.979Z,8.00
2023-11-12T11:03:10.434Z,8.10
2023-11-12T11:05:38.492Z,8.20
2023-11-12T11:08:06.488Z,8.10
2023-11-12T11:10:37.570Z,8.00
2023-11-12T11:13:05.255Z,7.80
2023-11-12T11:15:49.191Z,7.80
2023-11-12T11:18:37.581Z,7.90
2023-11-12T11:21:10.292Z,7.70
2023-11-12T11:23:46.061Z,7.80
2023-11-12T11:26:29.225Z,8.00
2023-11-12T11:29:06.145Z,8.10
2023-11-12T11:31:40.107Z,8.20
2023-11-12T11:34:09.096Z,8.20
2023-11-12T11:36:36.960Z,8.50
2023-11-12T11:39:18.494Z,8.60
2023-11-12T11:41:52.715Z,8.40
2023-11-12T11:44:46.834Z,8.40
2023-11-12T11:47:19.741Z,8.40
2023-11-12T11:49:50.353Z,8.40
2023-11-12T11:52:29.739Z,8.40
2023-11-12T11:54:58.400Z,8.50
2023-11-12T11:57:28.350Z,8.50
2023-11-12T11:59:59.693Z,8.60
2023-11-12T12:02:27.748Z,8.50
2023-11-12T12:05:00.122Z,8.30
2023-11-12T12:07:31.354Z,8.20
2023-11-12T12:10:01.244Z,8.00
2023-11-12T12:12:30.668Z,8.00
2023-11-12T12:14:58.079Z,8.00
2023-11-12T12:17:25.946Z,8.00
2023-11-12T12:19:54.638Z,8.10
2023-11-12T12:22:29.194Z,8.10
2023-11-12T12:24:59.478Z,8.00
2023-11-12T12:27:28.401Z,7.90
2023-11-12T12:29:56.393Z,7.90
2023-11-12T12:32:24.815Z,7.90
2023-11-12T12:34:59.690Z,8.00
2023-11-12T12:37:30.661Z,7.80
2023-11-12T12:40:05.221Z,7.80
2023-11-12T12:42:35.658Z,7.90
2023-11-12T12:45:12.030Z,8.10
2023-11-12T12:47:43.650Z,8.20
2023-11-12T12:50:17.027Z,8.40
2023-11-12T12:52:47.286Z,8.40
2023-11-12T12:55:18.727Z,8.40
2023-11-12T12:57:49.844Z,8.40
2023-11-12T13:00:23.107Z,8.20
2023-11-12T13:02:53.238Z,8.00
2023-11-12T13:05:23.033Z,8.00
2023-11-12T13:07:52.862Z,7.90
2023-11-12T13:10:22.246Z,8.00
2023-11-12T13:12:58.252Z,7.80
2023-11-12T13:15:26.734Z,7.80
2023-11-12T13:17:55.624Z,7.70
2023-11-12T13:20:26.440Z,7.70
2023-11-12T13:22:56.500Z,7.60
2023-11-12T13:25:24.396Z,7.60
2023-11-12T13:27:52.284Z,7.50
2023-11-12T13:30:20.871Z,7.50
2023-11-12T13:32:49.775Z,7.50
2023-11-12T13:35:18.109Z,7.40
2023-11-12T13:37:46.879Z,7.40
2023-11-12T13:40:17.350Z,7.30
2023-11-12T13:42:46.000Z,7.30
2023-11-12T13:45:15.480Z,7.30
2023-11-12T13:47:43.884Z,7.20
2023-11-12T13:50:15.697Z,7.20
2023-11-12T13:52:48.179Z,7.20
2023-11-12T13:55:19.791Z,7.20
2023-11-12T13:57:49.415Z,7.20
2023-11-12T14:00:18.936Z,7.30
2023-11-12T14:02:47.113Z,7.20
2023-11-12T14:05:15.018Z,7.30
2023-11-12T14:07:46.483Z,7.30
2023-11-12T14:10:19.602Z,7.20
2023-11-12T14:12:51.645Z,7.10
2023-11-12T14:15:40.791Z,7.10
2023-11-12T14:18:14.707Z,7.10
2023-11-12T14:20:42.576Z,7.10
2023-11-12T14:23:14.058Z,7.10
2023-11-12T14:25:41.570Z,7.00
2023-11-12T14:28:11.092Z,6.90
2023-11-12T14:30:41.689Z,6.90
2023-11-12T14:33:10.749Z,6.90
2023-11-12T14:35:38.527Z,7.00
2023-11-12T14:38:06.559Z,7.00
2023-11-12T14:40:34.261Z,7.10
2023-11-12T14:43:08.062Z,7.20
2023-11-12T14:45:38.402Z,7.20
2023-11-12T14:48:08.660Z,7.20
2023-11-12T14:50:36.138Z,7.20
2023-11-12T14:53:04.721Z,7.20
2023-11-12T14:55:32.387Z,7.20
2023-11-12T14:58:01.363Z,7.20
2023-11-12T15:00:29.638Z,7.20
2023-11-12T15:02:59.562Z,7.20
2023-11-12T15:05:31.772Z,7.10
2023-11-12T15:08:00.080Z,7.10
2023-11-12T15:10:29.479Z,7.20
2023-11-12T15:12:58.099Z,7.20
2023-11-12T15:15:25.870Z,7.20
2023-11-12T15:17:55.420Z,7.20
2023-11-12T15:20:23.568Z,7.20
2023-11-12T15:22:52.422Z,7.20
2023-11-12T15:25:20.901Z,7.30
2023-11-12T15:27:52.705Z,7.30
2023-11-12T15:30:21.134Z,7.30
2023-11-12T15:32:50.187Z,7.30
2023-11-12T15:35:19.758Z,7.30
2023-11-12T15:37:47.719Z,7.30
2023-11-12T15:40:20.491Z,7.30
2023-11-12T15:42:53.218Z,7.30
2023-11-12T15:45:25.746Z,7.30
2023-11-12T15:47:54.227Z,7.20
2023-11-12T15:50:31.162Z,7.20
2023-11-12T15:53:00.333Z,7.20
2023-11-12T15:55:28.262Z,7.20
2023-11-12T15:57:56.399Z,7.20
2023-11-12T16:00:25.452Z,7.20
2023-11-12T16:02:57.213Z,7.20
2023-11-12T16:05:30.998Z,7.20
2023-11-12T16:07:59.220Z,7.20
2023-11-12T16:10:27.948Z,7.20
2023-11-12T16:12:58.783Z,7.20
2023-11-12T16:15:29.469Z,7.20
2023-11-12T16:17:58.190Z,7.20
2023-11-12T16:20:25.972Z,7.10
2023-11-12T16:22:54.263Z,7.10
2023-11-12T16:25:21.967Z,7.10
2023-11-12T16:27:49.757Z,7.10
2023-11-12T16:30:17.432Z,7.10
2023-11-12T16:32:45.165Z,7.00
2023-11-12T16:35:14.365Z,7.00
2023-11-12T16:37:50.092Z,6.90
2023-11-12T16:40:23.821Z,6.90
2023-11-12T16:42:52.528Z,6.90
2023-11-12T16:45:20.561Z,7.00
2023-11-12T16:47:48.648Z,6.90
2023-11-12T16:50:19.089Z,7.00
2023-11-12T16:52:49.644Z,7.00
2023-11-12T16:55:20.678Z,7.00
2023-11-12T16:57:49.660Z,7.00
2023-11-12T17:00:19.851Z,6.90
2023-11-12T17:02:47.843Z,6.90
2023-11-12T17:05:21.954Z,6.90
2023-11-12T17:07:50.478Z,7.10
2023-11-12T17:10:19.600Z,7.00
2023-11-12T17:12:52.138Z,7.00
2023-11-12T17:15:24.792Z,7.00
2023-11-12T17:17:52.774Z,7.00
2023-11-12T17:20:21.216Z,7.00
2023-11-12T17:22:50.390Z,7.00
2023-11-12T17:25:29.444Z,7.00
2023-11-12T17:27:58.036Z,7.10
2023-11-12T17:30:26.480Z,7.10
2023-11-12T17:32:56.172Z,7.20
2023-11-12T17:35:25.281Z,7.20
2023-11-12T17:37:53.514Z,7.10
2023-11-12T17:40:21.173Z,7.20
2023-11-12T17:42:49.841Z,7.10
2023-11-12T17:45:17.473Z,7.00
2023-11-12T17:47:45.430Z,6.70
2023-11-12T17:50:13.405Z,6.30
2023-11-12T17:52:41.352Z,6.00
2023-11-12T17:55:10.049Z,6.00
2023-11-12T17:57:40.899Z,5.90
2023-11-12T18:00:10.516Z,5.70
2023-11-12T18:02:40.309Z,5.80
2023-11-12T18:05:08.724Z,5.80
2023-11-12T18:07:37.761Z,5.90
2023-11-12T18:10:06.267Z,5.90
2023-11-12T18:12:34.465Z,6.00
2023-11-12T18:15:02.006Z,6.00
2023-11-12T18:17:31.236Z,6.00
2023-11-12T18:19:59.441Z,6.00
2023-11-12T18:22:28.272Z,6.00
2023-11-12T18:24:55.840Z,5.90
2023-11-12T18:27:25.368Z,5.90
2023-11-12T18:29:56.028Z,5.90
2023-11-12T18:32:23.914Z,5.80
2023-11-12T18:34:51.857Z,5.90
2023-11-12T18:37:24.584Z,5.90
2023-11-12T18:39:52.249Z,5.70
2023-11-12T18:42:20.122Z,5.80
2023-11-12T18:44:47.975Z,5.80
2023-11-12T18:47:16.632Z,5.80
2023-11-12T18:49:48.187Z,5.80
2023-11-12T18:52:16.479Z,5.80
2023-11-12T18:54:44.544Z,5.80
2023-11-12T18:57:12.593Z,5.80
2023-11-12T18:59:41.730Z,5.80
2023-11-12T19:02:09.682Z,5.80
2023-11-12T19:04:37.328Z,5.90
2023-11-12T19:07:16.057Z,5.90
2023-11-12T19:09:47.039Z,5.90
2023-11-12T19:12:15.589Z,5.80
2023-11-12T19:14:43.333Z,5.80
2023-11-12T19:17:12.151Z,5.90
2023-11-12T19:19:41.437Z,5.90
2023-11-12T19:22:09.479Z,5.90
2023-11-12T19:24:39.127Z,5.90
2023-11-12T19:27:07.961Z,6.00
2023-11-12T19:29:35.689Z,6.00
2023-11-12T19:32:05.112Z,6.00
2023-11-12T19:34:35.517Z,6.10
2023-11-12T19:37:03.692Z,6.10
2023-11-12T19:39:31.659Z,6.10
2023-11-12T19:41:59.754Z,6.20
2023-11-12T19:44:27.574Z,6.20
2023-11-12T19:46:55.316Z,6.20
2023-11-12T19:49:22.774Z,6.30
2023-11-12T19:51:51.419Z,6.30
2023-11-12T19:54:19.949Z,6.30
2023-11-12T19:56:47.895Z,6.30
2023-11-12T19:59:15.488Z,6.30
2023-11-12T20:01:43.845Z,6.30
2023-11-12T20:04:14.998Z,6.30
2023-11-12T20:06:44.276Z,6.30
2023-11-12T20:09:12.135Z,6.30
2023-11-12T20:11:41.441Z,6.30
2023-11-12T20:14:09.020Z,6.20
2023-11-12T20:16:37.336Z,6.20
2023-11-12T20:19:07.160Z,6.30
2023-11-12T20:21:44.200Z,6.30
2023-11-12T20:24:16.856Z,6.30
2023-11-12T20:26:52.011Z,6.30
2023-11-12T20:29:23.359Z,6.30
2023-11-12T20:31:55.663Z,6.20
2023-11-12T20:34:23.975Z,6.20
2023-11-12T20:36:52.409Z,6.30
2023-11-12T20:39:21.603Z,6.20
2023-11-12T20:41:52.055Z,6.10
2023-11-12T20:44:19.765Z,6.10
2023-11-12T20:46:47.996Z,6.10
2023-11-12T20:49:17.901Z,6.20
2023-11-12T20:51:48.585Z,6.10
2023-11-12T20:54:17.461Z,6.20
2023-11-12T20:56:45.833Z,6.20
2023-11-12T20:59:17.424Z,6.20
2023-11-12T21:01:45.798Z,6.20
2023-11-12T21:04:15.440Z,6.30
2023-11-12T21:06:46.657Z,6.40
2023-11-12T21:09:14.899Z,6.50
2023-11-12T21:11:48.128Z,6.50
2023-11-12T21:14:16.867Z,6.40
2023-11-12T21:16:47.985Z,6.20
2023-11-12T21:19:15.519Z,6.20
2023-11-12T21:21:43.477Z,6.10
2023-11-12T21:24:12.030Z,6.10
2023-11-12T21:26:40.842Z,6.00
2023-11-12T21:29:10.546Z,5.90
2023-11-12T21:31:39.323Z,5.90
2023-11-12T21:34:07.233Z,5.80
2023-11-12T21:36:34.981Z,5.90
2023-11-12T21:39:02.641Z,5.90
2023-11-12T21:41:31.078Z,5.90
2023-11-12T21:43:59.043Z,6.00
2023-11-12T21:46:28.295Z,6.00
2023-11-12T21:48:56.338Z,6.10
2023-11-12T21:51:24.815Z,6.20
2023-11-12T21:53:53.253Z,6.20
2023-11-12T21:56:21.452Z,6.20
2023-11-12T21:58:50.174Z,6.30
2023-11-12T22:01:22.976Z,6.30
2023-11-12T22:03:51.771Z,6.30
2023-11-12T22:06:20.339Z,6.40
2023-11-12T22:08:48.462Z,6.30
2023-11-12T22:11:17.085Z,6.20
2023-11-12T22:13:44.513Z,6.20
2023-11-12T22:16:13.552Z,6.20
2023-11-12T22:18:41.481Z,6.10
2023-11-12T22:21:09.622Z,6.00
2023-11-12T22:23:37.613Z,5.90
2023-11-12T22:26:05.420Z,6.00
2023-11-12T22:28:33.039Z,6.00
2023-11-12T22:31:01.061Z,6.00
2023-11-12T22:33:28.789Z,6.00
2023-11-12T22:35:56.718Z,6.00
2023-11-12T22:38:24.473Z,6.00
2023-11-12T22:40:52.319Z,6.00
2023-11-12T22:43:25.610Z,6.00
2023-11-12T22:45:53.742Z,6.00
2023-11-12T22:48:21.228Z,6.00
2023-11-12T22:50:49.358Z,6.10
2023-11-12T22:53:17.069Z,6.10
2023-11-12T22:55:46.926Z,6.10
2023-11-12T22:58:16.002Z,6.20
2023-11-12T23:00:48.328Z,6.20
2023-11-12T23:03:17.259Z,6.20
2023-11-12T23:05:49.815Z,6.20
2023-11-12T23:08:17.451Z,6.10
2023-11-12T23:10:46.834Z,6.10
2023-11-12T23:13:15.815Z,6.10
2023-11-12T23:15:46.644Z,6.10
2023-11-12T23:18:14.370Z,6.10
2023-11-12T23:20:47.702Z,6.10
2023-11-12T23:23:23.086Z,6.20
2023-11-12T23:25:53.602Z,6.10
2023-11-12T23:28:21.313Z,6.10
2023-11-12T23:30:49.242Z,6.10
2023-11-12T23:33:16.823Z,6.10
2023-11-12T23:35:48.452Z,6.10
2023-11-12T23:38:15.901Z,6.10
2023-11-12T23:40:43.540Z,6.10
2023-11-12T23:43:11.217Z,6.00
2023-11-12T23:45:45.086Z,6.00
2023-11-12T23:48:12.767Z,6.10
2023-11-12T23:50:40.732Z,6.00
2023-11-12T23:53:08.428Z,6.00
2023-11-12T23:55:36.821Z,6.10
2023-11-12T23:58:05.229Z,6.10
